sensor_id;sensor_type;location;lat;lon;timestamp;temperature;humidity
24049;DHT22;12250;50.956;4.746;2023-11-22T00:02:15;5.20;99.90
24049;DHT22;12250;50.956;4.746;2023-11-22T00:04:41;5.10;99.90
24049;DHT22;12250;50.956;4.746;2023-11-22T00:07:07;5.00;99.90
24049;DHT22;12250;50.956;4.746;2023-11-22T00:09:33;5.00;99.90
24049;DHT22;12250;50.956;4.746;2023-11-22T00:11:59;4.90;99.90
24049;DHT22;12250;50.956;4.746;2023-11-22T00:14:25;5.00;99.90
24049;DHT22;12250;50.956;4.746;2023-11-22T00:16:52;4.90;99.90
24049;DHT22;12250;50.956;4.746;2023-11-22T00:19:19;5.00;99.90
24049;DHT22;12250;50.956;4.746;2023-11-22T00:21:48;5.00;99.90
24049;DHT22;12250;50.956;4.746;2023-11-22T00:24:13;5.00;99.90
24049;DHT22;12250;50.956;4.746;2023-11-22T00:26:39;5.10;99.90
24049;DHT22;12250;50.956;4.746;2023-11-22T00:29:05;5.10;99.90
24049;DHT22;12250;50.956;4.746;2023-11-22T00:31:31;5.20;99.90
24049;DHT22;12250;50.956;4.746;2023-11-22T00:33:57;5.20;99.90
24049;DHT22;12250;50.956;4.746;2023-11-22T00:36:22;5.20;99.90
24049;DHT22;12250;50.956;4.746;2023-11-22T00:38:48;5.20;99.90
24049;DHT22;12250;50.956;4.746;2023-11-22T00:41:14;5.20;99.90
24049;DHT22;12250;50.956;4.746;2023-11-22T00:43:42;5.30;99.90
24049;DHT22;12250;50.956;4.746;2023-11-22T00:46:08;5.30;99.90
24049;DHT22;12250;50.956;4.746;2023-11-22T00:48:33;5.40;99.90
24049;DHT22;12250;50.956;4.746;2023-11-22T00:50:59;5.50;99.90
24049;DHT22;12250;50.956;4.746;2023-11-22T00:53:25;5.50;99.90
24049;DHT22;12250;50.956;4.746;2023-11-22T00:55:50;5.50;99.90
24049;DHT22;12250;50.956;4.746;2023-11-22T00:58:16;5.60;99.90
24049;DHT22;12250;50.956;4.746;2023-11-22T01:00:42;5.60;99.90
24049;DHT22;12250;50.956;4.746;2023-11-22T01:03:08;5.60;99.90
24049;DHT22;12250;50.956;4.746;2023-11-22T01:05:37;5.70;99.90
24049;DHT22;12250;50.956;4.746;2023-11-22T01:08:03;5.70;99.90
24049;DHT22;12250;50.956;4.746;2023-11-22T01:10:28;5.70;99.90
24049;DHT22;12250;50.956;4.746;2023-11-22T01:12:55;5.80;99.90
24049;DHT22;12250;50.956;4.746;2023-11-22T01:15:21;5.70;99.90
24049;DHT22;12250;50.956;4.746;2023-11-22T01:17:47;5.70;99.90
24049;DHT22;12250;50.956;4.746;2023-11-22T01:20:12;5.60;99.90
24049;DHT22;12250;50.956;4.746;2023-11-22T01:22:39;5.60;99.90
24049;DHT22;12250;50.956;4.746;2023-11-22T01:25:05;5.60;99.90
24049;DHT22;12250;50.956;4.746;2023-11-22T01:27:31;5.70;99.90
24049;DHT22;12250;50.956;4.746;2023-11-22T01:29:56;5.60;99.90
24049;DHT22;12250;50.956;4.746;2023-11-22T01:32:22;5.60;99.90
24049;DHT22;12250;50.956;4.746;2023-11-22T01:34:48;5.60;99.90
24049;DHT22;12250;50.956;4.746;2023-11-22T01:37:14;5.60;99.90
24049;DHT22;12250;50.956;4.746;2023-11-22T01:39:40;5.50;99.90
24049;DHT22;12250;50.956;4.746;2023-11-22T01:42:07;5.50;99.90
24049;DHT22;12250;50.956;4.746;2023-11-22T01:44:33;5.50;99.90
24049;DHT22;12250;50.956;4.746;2023-11-22T01:46:58;5.50;99.90
24049;DHT22;12250;50.956;4.746;2023-11-22T01:49:24;5.50;99.90
24049;DHT22;12250;50.956;4.746;2023-11-22T01:51:50;5.50;99.90
24049;DHT22;12250;50.956;4.746;2023-11-22T01:54:16;5.50;99.90
24049;DHT22;12250;50.956;4.746;2023-11-22T01:56:44;5.60;99.90
24049;DHT22;12250;50.956;4.746;2023-11-22T01:59:11;5.60;99.90
24049;DHT22;12250;50.956;4.746;2023-11-22T02:01:38;5.80;99.90
24049;DHT22;12250;50.956;4.746;2023-11-22T02:04:04;5.70;99.90
24049;DHT22;12250;50.956;4.746;2023-11-22T02:06:30;5.70;99.90
24049;DHT22;12250;50.956;4.746;2023-11-22T02:08:57;5.60;99.90
24049;DHT22;12250;50.956;4.746;2023-11-22T02:11:22;5.70;99.90
24049;DHT22;12250;50.956;4.746;2023-11-22T02:13:50;5.70;99.90
24049;DHT22;12250;50.956;4.746;2023-11-22T02:16:16;5.60;99.90
24049;DHT22;12250;50.956;4.746;2023-11-22T02:18:47;5.60;99.90
24049;DHT22;12250;50.956;4.746;2023-11-22T02:21:13;5.60;99.90
24049;DHT22;12250;50.956;4.746;2023-11-22T02:23:40;5.50;99.90
24049;DHT22;12250;50.956;4.746;2023-11-22T02:26:07;5.60;99.90
24049;DHT22;12250;50.956;4.746;2023-11-22T02:28:33;5.50;99.90
24049;DHT22;12250;50.956;4.746;2023-11-22T02:30:59;5.50;99.90
24049;DHT22;12250;50.956;4.746;2023-11-22T02:33:25;5.40;99.90
24049;DHT22;12250;50.956;4.746;2023-11-22T02:35:50;5.40;99.90
24049;DHT22;12250;50.956;4.746;2023-11-22T02:38:16;5.30;99.90
24049;DHT22;12250;50.956;4.746;2023-11-22T02:40:43;5.30;99.90
24049;DHT22;12250;50.956;4.746;2023-11-22T02:43:09;5.30;99.90
24049;DHT22;12250;50.956;4.746;2023-11-22T02:45:37;5.20;99.90
24049;DHT22;12250;50.956;4.746;2023-11-22T02:48:04;5.20;99.90
24049;DHT22;12250;50.956;4.746;2023-11-22T02:50:34;5.30;99.90
24049;DHT22;12250;50.956;4.746;2023-11-22T02:53:00;5.30;99.90
24049;DHT22;12250;50.956;4.746;2023-11-22T02:55:26;5.30;99.90
24049;DHT22;12250;50.956;4.746;2023-11-22T02:57:54;5.20;99.90
24049;DHT22;12250;50.956;4.746;2023-11-22T03:00:20;5.10;99.90
24049;DHT22;12250;50.956;4.746;2023-11-22T03:02:46;5.10;99.90
24049;DHT22;12250;50.956;4.746;2023-11-22T03:05:12;5.10;99.90
24049;DHT22;12250;50.956;4.746;2023-11-22T03:07:41;4.90;99.90
24049;DHT22;12250;50.956;4.746;2023-11-22T03:10:07;4.70;99.90
24049;DHT22;12250;50.956;4.746;2023-11-22T03:12:34;4.60;99.90
24049;DHT22;12250;50.956;4.746;2023-11-22T03:15:00;4.40;99.90
24049;DHT22;12250;50.956;4.746;2023-11-22T03:17:27;4.20;99.90
24049;DHT22;12250;50.956;4.746;2023-11-22T03:19:56;4.10;99.90
24049;DHT22;12250;50.956;4.746;2023-11-22T03:22:26;4.10;99.90
24049;DHT22;12250;50.956;4.746;2023-11-22T03:24:52;3.90;99.90
24049;DHT22;12250;50.956;4.746;2023-11-22T03:27:18;3.80;99.90
24049;DHT22;12250;50.956;4.746;2023-11-22T03:29:44;3.70;99.90
24049;DHT22;12250;50.956;4.746;2023-11-22T03:32:10;3.60;99.90
24049;DHT22;12250;50.956;4.746;2023-11-22T03:34:36;3.50;99.90
24049;DHT22;12250;50.956;4.746;2023-11-22T03:37:02;3.40;99.90
24049;DHT22;12250;50.956;4.746;2023-11-22T03:39:28;3.20;99.90
24049;DHT22;12250;50.956;4.746;2023-11-22T03:41:54;3.20;99.90
24049;DHT22;12250;50.956;4.746;2023-11-22T03:44:19;3.10;99.90
24049;DHT22;12250;50.956;4.746;2023-11-22T03:46:45;3.00;99.90
24049;DHT22;12250;50.956;4.746;2023-11-22T03:49:10;3.00;99.90
24049;DHT22;12250;50.956;4.746;2023-11-22T03:51:37;3.00;99.90
24049;DHT22;12250;50.956;4.746;2023-11-22T03:54:03;3.00;99.90
24049;DHT22;12250;50.956;4.746;2023-11-22T03:56:29;3.00;99.90
24049;DHT22;12250;50.956;4.746;2023-11-22T03:58:55;3.00;99.90
24049;DHT22;12250;50.956;4.746;2023-11-22T04:01:21;3.10;99.90
24049;DHT22;12250;50.956;4.746;2023-11-22T04:03:47;3.30;99.90
24049;DHT22;12250;50.956;4.746;2023-11-22T04:06:18;3.30;99.90
24049;DHT22;12250;50.956;4.746;2023-11-22T04:08:48;3.40;99.90
24049;DHT22;12250;50.956;4.746;2023-11-22T04:11:14;3.40;99.90
24049;DHT22;12250;50.956;4.746;2023-11-22T04:13:40;3.40;99.90
24049;DHT22;12250;50.956;4.746;2023-11-22T04:16:10;3.40;99.90
24049;DHT22;12250;50.956;4.746;2023-11-22T04:18:41;3.40;99.90
24049;DHT22;12250;50.956;4.746;2023-11-22T04:21:07;3.50;99.90
24049;DHT22;12250;50.956;4.746;2023-11-22T04:23:34;3.60;99.90
24049;DHT22;12250;50.956;4.746;2023-11-22T04:26:00;3.50;99.90
24049;DHT22;12250;50.956;4.746;2023-11-22T04:28:27;3.50;99.90
24049;DHT22;12250;50.956;4.746;2023-11-22T04:30:53;3.60;99.90
24049;DHT22;12250;50.956;4.746;2023-11-22T04:33:19;3.60;99.90
24049;DHT22;12250;50.956;4.746;2023-11-22T04:35:47;3.60;99.90
24049;DHT22;12250;50.956;4.746;2023-11-22T04:38:12;3.70;99.90
24049;DHT22;12250;50.956;4.746;2023-11-22T04:40:38;3.90;99.90
24049;DHT22;12250;50.956;4.746;2023-11-22T04:43:04;3.90;99.90
24049;DHT22;12250;50.956;4.746;2023-11-22T04:45:30;4.00;99.90
24049;DHT22;12250;50.956;4.746;2023-11-22T04:47:55;4.10;99.90
24049;DHT22;12250;50.956;4.746;2023-11-22T04:50:24;4.20;99.90
24049;DHT22;12250;50.956;4.746;2023-11-22T04:52:50;4.20;99.90
24049;DHT22;12250;50.956;4.746;2023-11-22T04:55:16;4.40;99.90
24049;DHT22;12250;50.956;4.746;2023-11-22T04:57:41;4.40;99.90
24049;DHT22;12250;50.956;4.746;2023-11-22T05:00:08;4.50;99.90
24049;DHT22;12250;50.956;4.746;2023-11-22T05:02:34;4.70;99.90
24049;DHT22;12250;50.956;4.746;2023-11-22T05:05:00;4.80;99.90
24049;DHT22;12250;50.956;4.746;2023-11-22T05:07:25;4.90;99.90
24049;DHT22;12250;50.956;4.746;2023-11-22T05:09:51;4.90;99.90
24049;DHT22;12250;50.956;4.746;2023-11-22T05:12:17;5.00;99.90
24049;DHT22;12250;50.956;4.746;2023-11-22T05:14:43;5.00;99.90
24049;DHT22;12250;50.956;4.746;2023-11-22T05:17:09;5.10;99.90
24049;DHT22;12250;50.956;4.746;2023-11-22T05:19:35;5.00;99.90
24049;DHT22;12250;50.956;4.746;2023-11-22T05:22:00;5.10;99.90
24049;DHT22;12250;50.956;4.746;2023-11-22T05:24:26;5.20;99.90
24049;DHT22;12250;50.956;4.746;2023-11-22T05:26:52;5.10;99.90
24049;DHT22;12250;50.956;4.746;2023-11-22T05:29:17;5.00;99.90
24049;DHT22;12250;50.956;4.746;2023-11-22T05:31:43;4.90;99.90
24049;DHT22;12250;50.956;4.746;2023-11-22T05:34:08;4.70;99.90
24049;DHT22;12250;50.956;4.746;2023-11-22T05:36:34;4.70;99.90
24049;DHT22;12250;50.956;4.746;2023-11-22T05:39:00;4.90;99.90
24049;DHT22;12250;50.956;4.746;2023-11-22T05:41:26;5.00;99.90
24049;DHT22;12250;50.956;4.746;2023-11-22T05:43:52;5.00;99.90
24049;DHT22;12250;50.956;4.746;2023-11-22T05:46:19;5.10;99.90
24049;DHT22;12250;50.956;4.746;2023-11-22T05:48:48;5.20;99.90
24049;DHT22;12250;50.956;4.746;2023-11-22T05:51:15;5.20;99.90
24049;DHT22;12250;50.956;4.746;2023-11-22T05:53:41;5.20;99.90
24049;DHT22;12250;50.956;4.746;2023-11-22T05:56:07;5.30;99.90
24049;DHT22;12250;50.956;4.746;2023-11-22T05:58:35;5.20;99.90
24049;DHT22;12250;50.956;4.746;2023-11-22T06:01:07;5.20;99.90
24049;DHT22;12250;50.956;4.746;2023-11-22T06:03:35;5.30;99.90
24049;DHT22;12250;50.956;4.746;2023-11-22T06:06:01;5.30;99.90
24049;DHT22;12250;50.956;4.746;2023-11-22T06:08:28;5.30;99.90
24049;DHT22;12250;50.956;4.746;2023-11-22T06:10:54;5.30;99.90
24049;DHT22;12250;50.956;4.746;2023-11-22T06:13:22;5.50;99.90
24049;DHT22;12250;50.956;4.746;2023-11-22T06:15:48;5.50;99.90
24049;DHT22;12250;50.956;4.746;2023-11-22T06:18:13;5.50;99.90
24049;DHT22;12250;50.956;4.746;2023-11-22T06:20:41;5.60;99.90
24049;DHT22;12250;50.956;4.746;2023-11-22T06:23:07;5.60;99.90
24049;DHT22;12250;50.956;4.746;2023-11-22T06:25:32;5.60;99.90
24049;DHT22;12250;50.956;4.746;2023-11-22T06:27:58;5.60;99.90
24049;DHT22;12250;50.956;4.746;2023-11-22T06:30:24;5.60;99.90
24049;DHT22;12250;50.956;4.746;2023-11-22T06:32:51;5.60;99.90
24049;DHT22;12250;50.956;4.746;2023-11-22T06:35:17;5.60;99.90
24049;DHT22;12250;50.956;4.746;2023-11-22T06:37:43;5.60;99.90
24049;DHT22;12250;50.956;4.746;2023-11-22T06:40:10;5.70;99.90
24049;DHT22;12250;50.956;4.746;2023-11-22T06:42:42;5.70;99.90
24049;DHT22;12250;50.956;4.746;2023-11-22T06:45:08;5.80;99.90
24049;DHT22;12250;50.956;4.746;2023-11-22T06:47:38;5.80;99.90
24049;DHT22;12250;50.956;4.746;2023-11-22T06:50:04;5.80;99.90
24049;DHT22;12250;50.956;4.746;2023-11-22T06:52:40;5.80;99.90
24049;DHT22;12250;50.956;4.746;2023-11-22T06:55:07;5.80;99.90
24049;DHT22;12250;50.956;4.746;2023-11-22T06:57:37;5.80;99.90
24049;DHT22;12250;50.956;4.746;2023-11-22T07:00:04;5.80;99.90
24049;DHT22;12250;50.956;4.746;2023-11-22T07:02:33;5.90;99.90
24049;DHT22;12250;50.956;4.746;2023-11-22T07:05:01;5.90;99.90
24049;DHT22;12250;50.956;4.746;2023-11-22T07:07:26;5.90;99.90
24049;DHT22;12250;50.956;4.746;2023-11-22T07:09:52;5.90;99.90
24049;DHT22;12250;50.956;4.746;2023-11-22T07:12:18;5.90;99.90
24049;DHT22;12250;50.956;4.746;2023-11-22T07:14:44;6.00;99.90
24049;DHT22;12250;50.956;4.746;2023-11-22T07:17:10;6.00;99.90
24049;DHT22;12250;50.956;4.746;2023-11-22T07:19:36;6.00;99.90
24049;DHT22;12250;50.956;4.746;2023-11-22T07:22:06;5.90;99.90
24049;DHT22;12250;50.956;4.746;2023-11-22T07:24:42;6.00;99.90
24049;DHT22;12250;50.956;4.746;2023-11-22T07:27:12;5.90;99.90
24049;DHT22;12250;50.956;4.746;2023-11-22T07:29:42;5.90;99.90
24049;DHT22;12250;50.956;4.746;2023-11-22T07:32:08;6.00;99.90
24049;DHT22;12250;50.956;4.746;2023-11-22T07:34:38;6.00;99.90
24049;DHT22;12250;50.956;4.746;2023-11-22T07:37:05;6.10;99.90
24049;DHT22;12250;50.956;4.746;2023-11-22T07:39:33;6.10;99.90
24049;DHT22;12250;50.956;4.746;2023-11-22T07:41:58;6.10;99.90
24049;DHT22;12250;50.956;4.746;2023-11-22T07:44:24;6.20;99.90
24049;DHT22;12250;50.956;4.746;2023-11-22T07:46:50;6.10;99.90
24049;DHT22;12250;50.956;4.746;2023-11-22T07:49:17;6.10;99.90
24049;DHT22;12250;50.956;4.746;2023-11-22T07:51:44;6.20;99.90
24049;DHT22;12250;50.956;4.746;2023-11-22T07:54:11;6.20;99.90
24049;DHT22;12250;50.956;4.746;2023-11-22T07:56:41;6.20;99.90
24049;DHT22;12250;50.956;4.746;2023-11-22T07:59:11;6.20;99.90
24049;DHT22;12250;50.956;4.746;2023-11-22T08:01:37;6.30;99.90
24049;DHT22;12250;50.956;4.746;2023-11-22T08:04:03;6.30;99.90
24049;DHT22;12250;50.956;4.746;2023-11-22T08:06:33;6.20;99.90
24049;DHT22;12250;50.956;4.746;2023-11-22T08:09:00;6.20;99.90
24049;DHT22;12250;50.956;4.746;2023-11-22T08:11:27;6.20;99.90
24049;DHT22;12250;50.956;4.746;2023-11-22T08:13:53;6.20;99.90
24049;DHT22;12250;50.956;4.746;2023-11-22T08:16:20;6.20;99.90
24049;DHT22;12250;50.956;4.746;2023-11-22T08:18:46;6.30;99.90
24049;DHT22;12250;50.956;4.746;2023-11-22T08:21:11;6.30;99.90
24049;DHT22;12250;50.956;4.746;2023-11-22T08:23:37;6.40;99.90
24049;DHT22;12250;50.956;4.746;2023-11-22T08:26:03;6.40;99.90
24049;DHT22;12250;50.956;4.746;2023-11-22T08:28:30;6.40;99.90
24049;DHT22;12250;50.956;4.746;2023-11-22T08:30:55;6.40;99.90
24049;DHT22;12250;50.956;4.746;2023-11-22T08:33:21;6.50;99.90
24049;DHT22;12250;50.956;4.746;2023-11-22T08:35:47;6.50;99.90
24049;DHT22;12250;50.956;4.746;2023-11-22T08:38:16;6.70;99.90
24049;DHT22;12250;50.956;4.746;2023-11-22T08:40:42;6.80;99.90
24049;DHT22;12250;50.956;4.746;2023-11-22T08:43:08;6.90;99.90
24049;DHT22;12250;50.956;4.746;2023-11-22T08:45:33;6.90;99.90
24049;DHT22;12250;50.956;4.746;2023-11-22T08:48:00;6.90;99.90
24049;DHT22;12250;50.956;4.746;2023-11-22T08:50:26;7.10;99.90
24049;DHT22;12250;50.956;4.746;2023-11-22T08:52:51;7.10;99.90
24049;DHT22;12250;50.956;4.746;2023-11-22T08:55:20;7.30;99.90
24049;DHT22;12250;50.956;4.746;2023-11-22T08:57:49;7.50;99.90
24049;DHT22;12250;50.956;4.746;2023-11-22T09:00:18;7.50;99.90
24049;DHT22;12250;50.956;4.746;2023-11-22T09:02:54;7.60;99.90
24049;DHT22;12250;50.956;4.746;2023-11-22T09:05:23;7.40;99.90
24049;DHT22;12250;50.956;4.746;2023-11-22T09:07:49;7.30;99.90
24049;DHT22;12250;50.956;4.746;2023-11-22T09:10:16;7.50;99.90
24049;DHT22;12250;50.956;4.746;2023-11-22T09:12:44;7.60;99.90
24049;DHT22;12250;50.956;4.746;2023-11-22T09:15:13;7.50;99.90
24049;DHT22;12250;50.956;4.746;2023-11-22T09:17:43;7.50;99.90
24049;DHT22;12250;50.956;4.746;2023-11-22T09:20:15;7.60;99.90
24049;DHT22;12250;50.956;4.746;2023-11-22T09:22:43;7.70;99.90
24049;DHT22;12250;50.956;4.746;2023-11-22T09:25:13;7.90;99.90
24049;DHT22;12250;50.956;4.746;2023-11-22T09:27:40;8.00;99.90
24049;DHT22;12250;50.956;4.746;2023-11-22T09:30:06;8.10;99.90
24049;DHT22;12250;50.956;4.746;2023-11-22T09:32:36;8.20;99.90
24049;DHT22;12250;50.956;4.746;2023-11-22T09:35:04;8.20;99.90
24049;DHT22;12250;50.956;4.746;2023-11-22T09:37:29;8.30;99.90
24049;DHT22;12250;50.956;4.746;2023-11-22T09:39:56;8.40;99.90
24049;DHT22;12250;50.956;4.746;2023-11-22T09:42:23;8.50;99.90
24049;DHT22;12250;50.956;4.746;2023-11-22T09:44:49;8.60;99.90
24049;DHT22;12250;50.956;4.746;2023-11-22T09:47:15;8.70;99.90
24049;DHT22;12250;50.956;4.746;2023-11-22T09:49:46;8.70;99.90
24049;DHT22;12250;50.956;4.746;2023-11-22T09:52:16;8.70;99.90
24049;DHT22;12250;50.956;4.746;2023-11-22T09:54:43;8.60;99.90
24049;DHT22;12250;50.956;4.746;2023-11-22T09:57:09;8.70;99.90
24049;DHT22;12250;50.956;4.746;2023-11-22T09:59:38;8.60;99.90
24049;DHT22;12250;50.956;4.746;2023-11-22T10:02:05;8.70;99.90
24049;DHT22;12250;50.956;4.746;2023-11-22T10:04:32;8.70;99.90
24049;DHT22;12250;50.956;4.746;2023-11-22T10:06:57;8.80;99.90
24049;DHT22;12250;50.956;4.746;2023-11-22T10:09:25;8.80;99.90
24049;DHT22;12250;50.956;4.746;2023-11-22T10:11:52;8.80;99.90
24049;DHT22;12250;50.956;4.746;2023-11-22T10:14:24;8.70;99.90
24049;DHT22;12250;50.956;4.746;2023-11-22T10:16:59;8.70;99.90
24049;DHT22;12250;50.956;4.746;2023-11-22T10:19:25;8.60;99.90
24049;DHT22;12250;50.956;4.746;2023-11-22T10:22:05;8.50;99.90
24049;DHT22;12250;50.956;4.746;2023-11-22T10:24:32;8.50;99.90
24049;DHT22;12250;50.956;4.746;2023-11-22T10:27:01;8.60;99.90
24049;DHT22;12250;50.956;4.746;2023-11-22T10:29:28;8.70;99.90
24049;DHT22;12250;50.956;4.746;2023-11-22T10:31:54;8.80;99.90
24049;DHT22;12250;50.956;4.746;2023-11-22T10:34:23;8.80;99.90
24049;DHT22;12250;50.956;4.746;2023-11-22T10:36:49;9.00;99.90
24049;DHT22;12250;50.956;4.746;2023-11-22T10:39:21;9.00;99.90
24049;DHT22;12250;50.956;4.746;2023-11-22T10:41:47;9.00;99.90
24049;DHT22;12250;50.956;4.746;2023-11-22T10:44:14;9.10;99.90
24049;DHT22;12250;50.956;4.746;2023-11-22T10:46:41;9.10;99.90
24049;DHT22;12250;50.956;4.746;2023-11-22T10:49:06;9.10;99.90
24049;DHT22;12250;50.956;4.746;2023-11-22T10:51:33;8.90;99.90
24049;DHT22;12250;50.956;4.746;2023-11-22T10:54:00;9.00;99.90
24049;DHT22;12250;50.956;4.746;2023-11-22T10:56:29;9.00;99.90
24049;DHT22;12250;50.956;4.746;2023-11-22T10:58:58;9.10;99.90
24049;DHT22;12250;50.956;4.746;2023-11-22T11:01:26;9.10;99.90
24049;DHT22;12250;50.956;4.746;2023-11-22T11:04:09;9.10;99.90
24049;DHT22;12250;50.956;4.746;2023-11-22T11:06:37;9.20;99.90
24049;DHT22;12250;50.956;4.746;2023-11-22T11:09:04;9.20;99.90
24049;DHT22;12250;50.956;4.746;2023-11-22T11:11:36;9.30;99.90
24049;DHT22;12250;50.956;4.746;2023-11-22T11:14:03;9.30;99.90
24049;DHT22;12250;50.956;4.746;2023-11-22T11:16:30;9.30;99.90
24049;DHT22;12250;50.956;4.746;2023-11-22T11:19:00;9.40;99.90
24049;DHT22;12250;50.956;4.746;2023-11-22T11:21:27;9.60;99.90
24049;DHT22;12250;50.956;4.746;2023-11-22T11:23:52;9.70;99.90
24049;DHT22;12250;50.956;4.746;2023-11-22T11:26:20;9.80;99.90
24049;DHT22;12250;50.956;4.746;2023-11-22T11:28:50;9.80;99.90
24049;DHT22;12250;50.956;4.746;2023-11-22T11:31:20;9.70;99.90
24049;DHT22;12250;50.956;4.746;2023-11-22T11:36:29;9.50;99.90
24049;DHT22;12250;50.956;4.746;2023-11-22T11:38:58;9.60;99.90
24049;DHT22;12250;50.956;4.746;2023-11-22T11:41:29;9.80;99.90
24049;DHT22;12250;50.956;4.746;2023-11-22T11:43:56;9.60;99.90
24049;DHT22;12250;50.956;4.746;2023-11-22T11:46:23;9.60;99.90
24049;DHT22;12250;50.956;4.746;2023-11-22T11:48:50;9.60;99.90
24049;DHT22;12250;50.956;4.746;2023-11-22T11:51:24;9.10;99.90
24049;DHT22;12250;50.956;4.746;2023-11-22T11:53:50;9.30;99.90
24049;DHT22;12250;50.956;4.746;2023-11-22T11:56:16;9.50;99.90
24049;DHT22;12250;50.956;4.746;2023-11-22T11:58:43;9.70;99.90
24049;DHT22;12250;50.956;4.746;2023-11-22T12:01:20;9.70;99.90
24049;DHT22;12250;50.956;4.746;2023-11-22T12:03:47;10.00;99.90
24049;DHT22;12250;50.956;4.746;2023-11-22T12:06:16;10.10;99.90
24049;DHT22;12250;50.956;4.746;2023-11-22T12:08:43;10.30;99.90
24049;DHT22;12250;50.956;4.746;2023-11-22T12:11:09;10.40;99.90
24049;DHT22;12250;50.956;4.746;2023-11-22T12:13:36;10.40;99.90
24049;DHT22;12250;50.956;4.746;2023-11-22T12:16:14;10.60;99.90
24049;DHT22;12250;50.956;4.746;2023-11-22T12:18:49;10.60;99.90
24049;DHT22;12250;50.956;4.746;2023-11-22T12:21:16;10.60;99.90
24049;DHT22;12250;50.956;4.746;2023-11-22T12:23:44;10.60;99.90
24049;DHT22;12250;50.956;4.746;2023-11-22T12:26:13;10.40;99.90
24049;DHT22;12250;50.956;4.746;2023-11-22T12:28:40;10.20;99.90
24049;DHT22;12250;50.956;4.746;2023-11-22T12:31:10;10.10;99.90
24049;DHT22;12250;50.956;4.746;2023-11-22T12:33:37;10.20;99.90
24049;DHT22;12250;50.956;4.746;2023-11-22T12:36:03;9.70;99.90
24049;DHT22;12250;50.956;4.746;2023-11-22T12:38:29;9.30;99.90
24049;DHT22;12250;50.956;4.746;2023-11-22T12:40:58;9.30;99.90
24049;DHT22;12250;50.956;4.746;2023-11-22T12:43:24;9.30;99.90
24049;DHT22;12250;50.956;4.746;2023-11-22T12:46:04;9.30;99.90
24049;DHT22;12250;50.956;4.746;2023-11-22T12:48:32;9.40;99.90
24049;DHT22;12250;50.956;4.746;2023-11-22T12:50:58;9.50;99.90
24049;DHT22;12250;50.956;4.746;2023-11-22T12:53:25;9.60;99.90
24049;DHT22;12250;50.956;4.746;2023-11-22T12:55:53;9.60;99.90
24049;DHT22;12250;50.956;4.746;2023-11-22T12:58:20;9.70;99.90
24049;DHT22;12250;50.956;4.746;2023-11-22T13:00:47;9.60;99.90
24049;DHT22;12250;50.956;4.746;2023-11-22T13:03:13;9.40;99.90
24049;DHT22;12250;50.956;4.746;2023-11-22T13:05:40;9.20;99.90
24049;DHT22;12250;50.956;4.746;2023-11-22T13:08:08;9.20;99.90
24049;DHT22;12250;50.956;4.746;2023-11-22T13:10:38;9.10;99.90
24049;DHT22;12250;50.956;4.746;2023-11-22T13:13:04;9.10;99.90
24049;DHT22;12250;50.956;4.746;2023-11-22T13:15:30;9.00;99.90
24049;DHT22;12250;50.956;4.746;2023-11-22T13:17:56;9.00;99.90
24049;DHT22;12250;50.956;4.746;2023-11-22T13:20:23;8.90;99.90
24049;DHT22;12250;50.956;4.746;2023-11-22T13:22:48;8.90;99.90
24049;DHT22;12250;50.956;4.746;2023-11-22T13:25:14;8.80;99.90
24049;DHT22;12250;50.956;4.746;2023-11-22T13:27:42;8.70;99.90
24049;DHT22;12250;50.956;4.746;2023-11-22T13:30:07;8.80;99.90
24049;DHT22;12250;50.956;4.746;2023-11-22T13:32:33;8.70;99.90
24049;DHT22;12250;50.956;4.746;2023-11-22T13:35:00;8.70;99.90
24049;DHT22;12250;50.956;4.746;2023-11-22T13:37:26;8.70;99.90
24049;DHT22;12250;50.956;4.746;2023-11-22T13:39:53;8.60;99.90
24049;DHT22;12250;50.956;4.746;2023-11-22T13:42:18;8.80;99.90
24049;DHT22;12250;50.956;4.746;2023-11-22T13:44:44;8.90;99.90
24049;DHT22;12250;50.956;4.746;2023-11-22T13:47:13;9.00;99.90
24049;DHT22;12250;50.956;4.746;2023-11-22T13:49:41;9.20;99.90
24049;DHT22;12250;50.956;4.746;2023-11-22T13:52:08;9.30;99.90
24049;DHT22;12250;50.956;4.746;2023-11-22T13:54:34;9.30;99.90
24049;DHT22;12250;50.956;4.746;2023-11-22T13:57:04;9.30;99.90
24049;DHT22;12250;50.956;4.746;2023-11-22T13:59:30;9.20;99.90
24049;DHT22;12250;50.956;4.746;2023-11-22T14:01:56;9.10;99.90
24049;DHT22;12250;50.956;4.746;2023-11-22T14:04:21;9.00;99.90
24049;DHT22;12250;50.956;4.746;2023-11-22T14:06:48;8.80;99.90
24049;DHT22;12250;50.956;4.746;2023-11-22T14:09:14;8.80;99.90
24049;DHT22;12250;50.956;4.746;2023-11-22T14:11:40;8.50;99.90
24049;DHT22;12250;50.956;4.746;2023-11-22T14:14:05;8.60;99.90
24049;DHT22;12250;50.956;4.746;2023-11-22T14:16:31;8.60;99.90
24049;DHT22;12250;50.956;4.746;2023-11-22T14:18:57;8.70;99.90
24049;DHT22;12250;50.956;4.746;2023-11-22T14:21:25;8.60;99.90
24049;DHT22;12250;50.956;4.746;2023-11-22T14:23:51;8.40;99.90
24049;DHT22;12250;50.956;4.746;2023-11-22T14:26:18;8.40;99.90
24049;DHT22;12250;50.956;4.746;2023-11-22T14:28:44;8.70;99.90
24049;DHT22;12250;50.956;4.746;2023-11-22T14:31:09;8.80;99.90
24049;DHT22;12250;50.956;4.746;2023-11-22T14:33:35;8.90;99.90
24049;DHT22;12250;50.956;4.746;2023-11-22T14:36:01;9.00;99.90
24049;DHT22;12250;50.956;4.746;2023-11-22T14:38:26;9.00;99.90
24049;DHT22;12250;50.956;4.746;2023-11-22T14:40:52;9.10;99.90
24049;DHT22;12250;50.956;4.746;2023-11-22T14:43:18;9.10;99.90
24049;DHT22;12250;50.956;4.746;2023-11-22T14:45:44;9.10;99.90
24049;DHT22;12250;50.956;4.746;2023-11-22T14:48:09;9.20;99.90
24049;DHT22;12250;50.956;4.746;2023-11-22T14:50:38;9.10;99.90
24049;DHT22;12250;50.956;4.746;2023-11-22T14:53:06;9.10;99.90
24049;DHT22;12250;50.956;4.746;2023-11-22T14:55:33;9.00;99.90
24049;DHT22;12250;50.956;4.746;2023-11-22T14:58:03;9.00;99.90
24049;DHT22;12250;50.956;4.746;2023-11-22T15:00:30;8.90;99.90
24049;DHT22;12250;50.956;4.746;2023-11-22T15:02:56;8.90;99.90
24049;DHT22;12250;50.956;4.746;2023-11-22T15:05:21;8.90;99.90
24049;DHT22;12250;50.956;4.746;2023-11-22T15:07:52;8.90;99.90
24049;DHT22;12250;50.956;4.746;2023-11-22T15:10:21;8.90;99.90
24049;DHT22;12250;50.956;4.746;2023-11-22T15:12:47;8.80;99.90
24049;DHT22;12250;50.956;4.746;2023-11-22T15:15:14;8.80;99.90
24049;DHT22;12250;50.956;4.746;2023-11-22T15:17:40;8.80;99.90
24049;DHT22;12250;50.956;4.746;2023-11-22T15:20:06;8.80;99.90
24049;DHT22;12250;50.956;4.746;2023-11-22T15:22:35;8.60;99.90
24049;DHT22;12250;50.956;4.746;2023-11-22T15:25:02;8.60;99.90
24049;DHT22;12250;50.956;4.746;2023-11-22T15:27:28;8.60;99.90
24049;DHT22;12250;50.956;4.746;2023-11-22T15:29:53;8.60;99.90
24049;DHT22;12250;50.956;4.746;2023-11-22T15:32:19;8.60;99.90
24049;DHT22;12250;50.956;4.746;2023-11-22T15:34:45;8.60;99.90
24049;DHT22;12250;50.956;4.746;2023-11-22T15:37:10;8.50;99.90
24049;DHT22;12250;50.956;4.746;2023-11-22T15:39:37;8.60;99.90
24049;DHT22;12250;50.956;4.746;2023-11-22T15:42:03;8.50;99.90
24049;DHT22;12250;50.956;4.746;2023-11-22T15:44:31;8.50;99.90
24049;DHT22;12250;50.956;4.746;2023-11-22T15:46:57;8.40;99.90